createdAt,value
2022-12-08T00:02:14.224Z,3.40
2022-12-08T00:05:18.186Z,3.40
2022-12-08T00:08:22.375Z,3.40
2022-12-08T00:11:14.499Z,3.30
2022-12-08T00:14:01.107Z,3.30
2022-12-08T00:16:47.712Z,3.30
2022-12-08T00:19:35.022Z,3.30
2022-12-08T00:22:21.374Z,3.30
2022-12-08T00:25:08.612Z,3.30
2022-12-08T00:27:56.408Z,3.30
2022-12-08T00:30:43.336Z,3.30
2022-12-08T00:33:30.230Z,3.20
2022-12-08T00:36:17.048Z,3.20
2022-12-08T00:39:03.701Z,3.20
2022-12-08T00:42:07.274Z,3.20
2022-12-08T00:44:55.537Z,3.20
2022-12-08T00:47:42.157Z,3.10
2022-12-08T00:50:28.481Z,3.20
2022-12-08T00:53:14.856Z,3.10
2022-12-08T00:56:01.159Z,3.10
2022-12-08T00:58:47.552Z,3.20
2022-12-08T01:01:35.662Z,3.20
2022-12-08T01:04:22.664Z,3.30
2022-12-08T01:07:09.361Z,3.40
2022-12-08T01:09:57.687Z,3.30
2022-12-08T01:12:44.143Z,3.30
2022-12-08T01:15:30.551Z,3.30
2022-12-08T01:18:18.063Z,3.10
2022-12-08T01:21:05.392Z,2.90
2022-12-08T01:23:52.320Z,2.70
2022-12-08T01:26:38.712Z,2.50
2022-12-08T01:29:25.251Z,2.30
2022-12-08T01:32:11.811Z,2.20
2022-12-08T01:34:59.386Z,2.20
2022-12-08T01:37:45.962Z,2.10
2022-12-08T01:40:32.647Z,2.10
2022-12-08T01:43:21.670Z,2.10
2022-12-08T01:46:08.312Z,2.10
2022-12-08T01:49:00.094Z,2.10
2022-12-08T01:51:53.875Z,2.20
2022-12-08T01:54:41.617Z,2.30
2022-12-08T01:57:30.834Z,2.30
2022-12-08T02:00:20.698Z,2.30
2022-12-08T02:03:12.042Z,2.30
2022-12-08T02:05:59.503Z,2.30
2022-12-08T02:08:48.773Z,2.30
2022-12-08T02:11:35.231Z,2.40
2022-12-08T02:14:24.293Z,2.40
2022-12-08T02:17:22.601Z,2.30
2022-12-08T02:20:45.464Z,2.30
2022-12-08T02:23:38.106Z,2.20
2022-12-08T02:27:04.659Z,2.00
2022-12-08T02:30:14.032Z,1.90
2022-12-08T02:33:27.851Z,1.90
2022-12-08T02:36:19.979Z,1.90
2022-12-08T02:39:15.887Z,1.90
2022-12-08T02:42:11.501Z,2.10
2022-12-08T02:45:02.667Z,2.00
2022-12-08T02:47:49.546Z,2.00
2022-12-08T02:50:36.095Z,1.90
2022-12-08T02:53:23.677Z,1.90
2022-12-08T02:56:35.021Z,2.00
2022-12-08T02:59:37.102Z,2.00
2022-12-08T03:02:37.210Z,2.00
2022-12-08T03:05:38.153Z,2.00
2022-12-08T03:08:33.705Z,2.00
2022-12-08T03:11:23.968Z,2.00
2022-12-08T03:14:14.843Z,2.10
2022-12-08T03:17:02.093Z,2.00
2022-12-08T03:19:49.890Z,2.10
2022-12-08T03:22:36.712Z,2.00
2022-12-08T03:25:31.832Z,1.90
2022-12-08T03:28:18.667Z,1.90
2022-12-08T03:31:10.844Z,1.90
2022-12-08T03:34:00.351Z,2.00
2022-12-08T03:36:47.178Z,2.10
2022-12-08T03:39:33.892Z,2.10
2022-12-08T03:42:22.099Z,2.20
2022-12-08T03:45:09.336Z,2.20
2022-12-08T03:47:55.721Z,2.10
2022-12-08T03:50:42.264Z,2.20
2022-12-08T03:53:28.836Z,2.10
2022-12-08T03:56:23.985Z,2.10
2022-12-08T03:59:12.712Z,2.20
2022-12-08T04:01:59.167Z,2.30
2022-12-08T04:04:45.543Z,2.30
2022-12-08T04:07:32.047Z,2.30
2022-12-08T04:10:18.782Z,2.30
2022-12-08T04:13:05.427Z,2.30
2022-12-08T04:15:53.368Z,2.40
2022-12-08T04:18:40.381Z,2.30
2022-12-08T04:21:26.807Z,2.50
2022-12-08T04:24:13.116Z,2.60
2022-12-08T04:26:59.543Z,2.50
2022-12-08T04:29:45.954Z,2.50
2022-12-08T04:32:33.658Z,2.60
2022-12-08T04:35:20.135Z,2.50
2022-12-08T04:38:06.302Z,2.30
2022-12-08T04:40:52.777Z,2.20
2022-12-08T04:43:39.174Z,2.10
2022-12-08T04:46:25.601Z,2.10
2022-12-08T04:49:13.702Z,2.10
2022-12-08T04:52:00.176Z,2.10
2022-12-08T04:54:46.561Z,2.30
2022-12-08T04:57:32.797Z,2.40
2022-12-08T05:00:19.765Z,2.30
2022-12-08T05:03:06.299Z,2.40
2022-12-08T05:05:54.169Z,2.40
2022-12-08T05:08:40.557Z,2.40
2022-12-08T05:11:27.009Z,2.30
2022-12-08T05:14:16.035Z,2.40
2022-12-08T05:17:07.792Z,2.40
2022-12-08T05:19:55.806Z,2.40
2022-12-08T05:22:43.705Z,2.30
2022-12-08T05:25:30.377Z,2.40
2022-12-08T05:28:40.735Z,2.30
2022-12-08T05:31:23.586Z,2.40
2022-12-08T05:34:10.296Z,2.40
2022-12-08T05:36:56.727Z,2.50
2022-12-08T05:39:44.371Z,2.50
2022-12-08T05:42:31.123Z,2.30
2022-12-08T05:45:17.506Z,2.30
2022-12-08T05:48:03.874Z,2.30
2022-12-08T05:50:51.346Z,2.20
2022-12-08T05:53:37.638Z,2.10
2022-12-08T05:56:25.608Z,2.10
2022-12-08T05:59:12.324Z,2.10
2022-12-08T06:01:58.867Z,2.10
2022-12-08T06:04:45.631Z,2.00
2022-12-08T06:07:32.108Z,2.20
2022-12-08T06:10:18.471Z,2.20
2022-12-08T06:13:06.623Z,2.20
2022-12-08T06:15:53.192Z,2.20
2022-12-08T06:18:39.844Z,2.20
2022-12-08T06:21:26.518Z,2.40
2022-12-08T06:24:13.126Z,2.40
2022-12-08T06:26:59.609Z,2.60
2022-12-08T06:29:47.885Z,2.70
2022-12-08T06:32:34.345Z,2.70
2022-12-08T06:35:21.205Z,2.70
2022-12-08T06:38:07.492Z,2.70
2022-12-08T06:40:57.597Z,2.70
2022-12-08T06:43:44.599Z,2.70
2022-12-08T06:46:32.786Z,2.90
2022-12-08T06:49:19.572Z,2.90
2022-12-08T06:52:06.202Z,2.80
2022-12-08T06:54:52.936Z,2.80
2022-12-08T06:57:39.286Z,2.80
2022-12-08T07:00:26.402Z,2.90
2022-12-08T07:03:14.681Z,2.90
2022-12-08T07:06:04.019Z,2.90
2022-12-08T07:08:50.966Z,2.80
2022-12-08T07:11:38.805Z,2.90
2022-12-08T07:14:25.441Z,2.90
2022-12-08T07:17:11.754Z,3.00
2022-12-08T07:20:02.080Z,3.10
2022-12-08T07:22:50.944Z,3.00
2022-12-08T07:25:37.482Z,3.00
2022-12-08T07:28:23.882Z,3.00
2022-12-08T07:31:18.896Z,3.10
2022-12-08T07:34:05.346Z,3.20
2022-12-08T07:36:53.182Z,3.20
2022-12-08T07:39:39.767Z,3.20
2022-12-08T07:42:26.504Z,3.20
2022-12-08T07:45:12.875Z,3.20
2022-12-08T07:47:59.475Z,3.10
2022-12-08T07:50:45.865Z,3.10
2022-12-08T07:53:34.097Z,3.20
2022-12-08T07:56:21.281Z,3.20
2022-12-08T07:59:07.578Z,3.20
2022-12-08T08:02:20.900Z,3.30
2022-12-08T08:05:00.556Z,3.40
2022-12-08T08:07:48.294Z,3.50
2022-12-08T08:10:36.282Z,3.40
2022-12-08T08:13:22.690Z,3.40
2022-12-08T08:16:11.112Z,3.50
2022-12-08T08:18:58.015Z,3.50
2022-12-08T08:21:46.130Z,3.50
2022-12-08T08:24:33.341Z,3.50
2022-12-08T08:27:21.188Z,3.50
2022-12-08T08:30:10.819Z,3.60
2022-12-08T08:32:59.743Z,3.50
2022-12-08T08:35:46.092Z,3.50
2022-12-08T08:38:32.440Z,3.60
2022-12-08T08:41:18.759Z,3.70
2022-12-08T08:44:06.783Z,3.70
2022-12-08T08:46:53.170Z,3.70
2022-12-08T08:49:40.337Z,3.70
2022-12-08T08:52:26.666Z,3.80
2022-12-08T08:55:13.078Z,3.90
2022-12-08T08:57:59.636Z,3.90
2022-12-08T09:00:47.542Z,3.90
2022-12-08T09:03:34.105Z,3.80
2022-12-08T09:06:21.350Z,4.00
2022-12-08T09:09:07.868Z,4.10
2022-12-08T09:11:55.548Z,4.10
2022-12-08T09:14:42.230Z,4.30
2022-12-08T09:17:30.009Z,4.30
2022-12-08T09:20:16.598Z,4.40
2022-12-08T09:23:03.249Z,4.40
2022-12-08T09:25:49.679Z,4.30
2022-12-08T09:28:36.459Z,4.30
2022-12-08T09:31:24.300Z,4.30
2022-12-08T09:34:13.607Z,4.40
2022-12-08T09:36:59.966Z,4.50
2022-12-08T09:39:47.501Z,4.70
2022-12-08T09:42:43.590Z,4.70
2022-12-08T09:45:34.584Z,4.90
2022-12-08T09:48:26.467Z,5.00
2022-12-08T09:51:16.541Z,5.00
2022-12-08T09:54:08.382Z,5.10
2022-12-08T09:56:59.576Z,5.10
2022-12-08T09:59:49.987Z,5.30
2022-12-08T10:02:36.415Z,5.40
2022-12-08T10:05:25.765Z,5.40
2022-12-08T10:08:21.119Z,5.40
2022-12-08T10:11:13.702Z,5.30
2022-12-08T10:14:07.294Z,5.30
2022-12-08T10:16:58.223Z,5.40
2022-12-08T10:19:46.911Z,5.50
2022-12-08T10:22:41.247Z,5.40
2022-12-08T10:25:38.766Z,5.30
2022-12-08T10:28:25.318Z,5.20
2022-12-08T10:31:17.474Z,5.30
2022-12-08T10:34:17.311Z,5.40
2022-12-08T10:37:11.056Z,5.30
2022-12-08T10:40:02.789Z,5.50
2022-12-08T10:42:54.328Z,5.40
2022-12-08T10:45:42.855Z,5.30
2022-12-08T10:48:31.587Z,5.20
2022-12-08T10:51:28.380Z,5.20
2022-12-08T10:54:29.077Z,5.10
2022-12-08T10:57:21.815Z,5.10
2022-12-08T11:00:14.872Z,5.10
2022-12-08T11:03:03.752Z,5.20
2022-12-08T11:05:50.987Z,5.10
2022-12-08T11:08:50.505Z,5.20
2022-12-08T11:11:46.456Z,5.20
2022-12-08T11:14:34.374Z,5.20
2022-12-08T11:17:29.418Z,5.30
2022-12-08T11:20:24.224Z,5.30
2022-12-08T11:23:22.373Z,5.20
2022-12-08T11:26:16.635Z,5.30
2022-12-08T11:29:04.006Z,5.40
2022-12-08T11:31:55.618Z,5.50
2022-12-08T11:34:47.303Z,5.50
2022-12-08T11:37:38.314Z,5.50
2022-12-08T11:40:30.691Z,5.50
2022-12-08T11:43:23.665Z,5.50
2022-12-08T11:46:16.077Z,5.40
2022-12-08T11:49:06.893Z,5.40
2022-12-08T11:52:04.939Z,5.50
2022-12-08T11:54:58.290Z,5.50
2022-12-08T11:57:45.886Z,5.60
2022-12-08T12:00:32.475Z,5.60
2022-12-08T12:03:26.504Z,5.70
2022-12-08T12:06:58.567Z,5.70
2022-12-08T12:10:01.011Z,5.60
2022-12-08T12:13:00.217Z,5.60
2022-12-08T12:16:17.361Z,5.40
2022-12-08T12:19:11.026Z,5.50
2022-12-08T12:22:09.534Z,5.30
2022-12-08T12:24:57.330Z,5.40
2022-12-08T12:27:46.537Z,5.30
2022-12-08T12:30:51.329Z,5.20
2022-12-08T12:33:38.686Z,5.20
2022-12-08T12:36:25.537Z,5.20
2022-12-08T12:39:14.433Z,5.20
2022-12-08T12:42:05.566Z,5.20
2022-12-08T12:45:26.862Z,5.20
2022-12-08T12:48:28.409Z,5.20
2022-12-08T12:51:44.561Z,5.20
2022-12-08T12:54:31.252Z,5.30
2022-12-08T12:57:24.227Z,5.30
2022-12-08T13:00:20.092Z,5.30
2022-12-08T13:03:15.854Z,5.10
2022-12-08T13:06:02.475Z,5.00
2022-12-08T13:08:53.765Z,5.10
2022-12-08T13:11:50.456Z,5.20
2022-12-08T13:14:45.487Z,5.20
2022-12-08T13:17:34.250Z,5.30
2022-12-08T13:20:23.606Z,5.30
2022-12-08T13:23:44.049Z,5.40
2022-12-08T13:26:30.942Z,5.40
2022-12-08T13:29:21.008Z,5.40
2022-12-08T13:36:22.264Z,5.30
2022-12-08T13:39:20.731Z,5.20
2022-12-08T13:42:15.048Z,5.20
2022-12-08T13:48:31.145Z,5.30
2022-12-08T13:53:34.881Z,5.20
2022-12-08T13:57:51.312Z,5.20
2022-12-08T14:00:38.298Z,5.00
2022-12-08T14:03:26.429Z,5.00
2022-12-08T14:06:15.876Z,5.10
2022-12-08T14:09:10.738Z,5.10
2022-12-08T14:12:00.359Z,5.10
2022-12-08T14:15:04.846Z,5.20
2022-12-08T14:17:53.241Z,5.30
2022-12-08T14:21:12.645Z,5.40
2022-12-08T14:23:48.318Z,5.30
2022-12-08T14:26:36.137Z,5.20
2022-12-08T14:29:37.278Z,5.10
2022-12-08T14:32:27.975Z,5.20
2022-12-08T14:35:21.890Z,5.20
2022-12-08T14:38:14.117Z,5.30
2022-12-08T14:41:03.291Z,5.30
2022-12-08T14:43:59.577Z,5.30
2022-12-08T14:47:05.903Z,5.30
2022-12-08T14:49:52.862Z,5.30
2022-12-08T14:52:46.998Z,5.30
2022-12-08T14:55:38.373Z,5.30
2022-12-08T14:58:30.315Z,5.30
2022-12-08T15:01:22.130Z,5.30
2022-12-08T15:04:15.850Z,5.30
2022-12-08T15:07:06.639Z,5.30
2022-12-08T15:10:10.772Z,5.30
2022-12-08T15:12:59.371Z,5.30
2022-12-08T15:15:49.356Z,5.30
2022-12-08T15:18:39.039Z,5.30
2022-12-08T15:21:30.857Z,5.30
2022-12-08T15:24:18.685Z,5.40
2022-12-08T15:27:05.272Z,5.40
2022-12-08T15:29:53.663Z,5.40
2022-12-08T15:32:40.414Z,5.30
2022-12-08T15:35:26.867Z,5.30
2022-12-08T15:38:20.346Z,5.10
2022-12-08T15:41:10.206Z,5.20
2022-12-08T15:44:02.245Z,5.10
2022-12-08T15:46:50.779Z,5.10
2022-12-08T15:49:37.453Z,5.10
2022-12-08T15:52:25.552Z,5.00
2022-12-08T15:55:16.095Z,5.10
2022-12-08T15:58:52.497Z,5.10
2022-12-08T16:01:09.669Z,5.00
2022-12-08T16:07:20.672Z,5.10
2022-12-08T16:10:09.814Z,5.00
2022-12-08T16:13:55.628Z,5.00
2022-12-08T16:16:27.603Z,5.00
2022-12-08T16:19:16.367Z,5.00
2022-12-08T16:25:18.396Z,4.90
2022-12-08T16:28:29.507Z,5.00
2022-12-08T16:31:17.652Z,5.00
2022-12-08T16:34:06.518Z,4.80
2022-12-08T16:36:54.803Z,4.80
2022-12-08T16:39:45.777Z,4.70
2022-12-08T16:42:48.504Z,4.70
2022-12-08T16:45:43.053Z,4.70
2022-12-08T16:48:31.851Z,4.80
2022-12-08T16:51:26.448Z,4.60
2022-12-08T16:54:14.675Z,4.70
2022-12-08T16:57:01.145Z,4.60
2022-12-08T16:59:47.779Z,4.60
2022-12-08T17:02:34.314Z,4.60
2022-12-08T17:05:23.596Z,4.60
2022-12-08T17:08:10.390Z,4.60
2022-12-08T17:11:08.462Z,4.60
2022-12-08T17:13:55.486Z,4.60
2022-12-08T17:16:43.582Z,4.40
2022-12-08T17:19:30.131Z,4.40
2022-12-08T17:22:16.607Z,4.30
2022-12-08T17:25:03.778Z,4.30
2022-12-08T17:27:52.173Z,4.30
2022-12-08T17:30:39.498Z,4.30
2022-12-08T17:33:27.038Z,4.40
2022-12-08T17:36:16.618Z,4.20
2022-12-08T17:39:03.451Z,4.00
2022-12-08T17:41:50.005Z,4.00
2022-12-08T17:44:38.467Z,3.80
2022-12-08T17:47:25.210Z,3.60
2022-12-08T17:50:11.719Z,3.70
2022-12-08T17:52:58.778Z,3.80
2022-12-08T17:55:52.976Z,3.80
2022-12-08T17:58:39.390Z,3.60
2022-12-08T18:01:28.315Z,3.60
2022-12-08T18:04:14.945Z,3.60
2022-12-08T18:07:03.288Z,3.60
2022-12-08T18:09:51.485Z,3.70
2022-12-08T18:12:38.402Z,3.80
2022-12-08T18:15:25.338Z,3.90
2022-12-08T18:18:13.199Z,3.90
2022-12-08T18:20:59.622Z,4.00
2022-12-08T18:23:46.873Z,4.20
2022-12-08T18:26:33.792Z,4.10
2022-12-08T18:29:21.231Z,4.10
2022-12-08T18:32:08.510Z,4.00
2022-12-08T18:34:56.276Z,4.10
2022-12-08T18:37:43.592Z,4.10
2022-12-08T18:40:30.500Z,4.20
2022-12-08T18:43:17.029Z,4.30
2022-12-08T18:46:04.000Z,4.30
2022-12-08T18:48:52.159Z,4.40
2022-12-08T18:51:40.467Z,4.30
2022-12-08T18:54:37.008Z,4.30
2022-12-08T18:57:33.714Z,4.40
2022-12-08T19:00:21.219Z,4.40
2022-12-08T19:03:07.765Z,4.40
2022-12-08T19:06:03.275Z,4.50
2022-12-08T19:08:51.009Z,4.40
2022-12-08T19:11:37.608Z,4.20
2022-12-08T19:14:28.236Z,4.30
2022-12-08T19:17:15.687Z,4.30
2022-12-08T19:20:02.131Z,4.20
2022-12-08T19:22:48.603Z,4.10
2022-12-08T19:25:36.424Z,3.90
2022-12-08T19:28:23.047Z,3.90
2022-12-08T19:31:10.947Z,3.90
2022-12-08T19:33:58.150Z,3.60
2022-12-08T19:36:44.966Z,3.60
2022-12-08T19:39:49.189Z,3.50
2022-12-08T19:43:03.113Z,3.50
2022-12-08T19:45:49.696Z,3.50
2022-12-08T19:48:36.655Z,3.30
2022-12-08T19:51:23.706Z,3.30
2022-12-08T19:54:11.923Z,3.20
2022-12-08T19:56:58.536Z,3.20
2022-12-08T19:59:47.058Z,3.10
2022-12-08T20:02:36.365Z,2.90
2022-12-08T20:05:23.779Z,2.80
2022-12-08T20:08:10.695Z,2.70
2022-12-08T20:10:59.023Z,2.80
2022-12-08T20:13:47.593Z,2.70
2022-12-08T20:16:36.037Z,2.60
2022-12-08T20:19:22.581Z,2.60
2022-12-08T20:22:09.028Z,2.50
2022-12-08T20:25:00.693Z,2.50
2022-12-08T20:27:47.766Z,2.50
2022-12-08T20:30:34.353Z,2.70
2022-12-08T20:33:22.739Z,3.00
2022-12-08T20:36:14.377Z,3.10
2022-12-08T20:39:00.813Z,3.10
2022-12-08T20:41:47.693Z,3.10
2022-12-08T20:44:34.606Z,3.10
2022-12-08T20:47:21.087Z,3.10
2022-12-08T20:50:10.796Z,3.20
2022-12-08T20:52:58.228Z,3.30
2022-12-08T20:55:45.134Z,3.20
2022-12-08T20:58:32.197Z,3.00
2022-12-08T21:01:22.515Z,2.90
2022-12-08T21:04:12.345Z,3.00
2022-12-08T21:07:00.734Z,3.20
2022-12-08T21:09:47.590Z,3.20
2022-12-08T21:12:34.396Z,3.20
2022-12-08T21:15:21.383Z,3.10
2022-12-08T21:18:08.564Z,3.00
2022-12-08T21:21:02.728Z,2.90
2022-12-08T21:23:50.819Z,3.00
2022-12-08T21:26:38.265Z,3.10
2022-12-08T21:29:25.234Z,2.90
2022-12-08T21:32:12.315Z,2.70
2022-12-08T21:34:59.298Z,2.80
2022-12-08T21:37:45.674Z,2.60
2022-12-08T21:40:35.107Z,2.50
2022-12-08T21:43:22.295Z,2.60
2022-12-08T21:46:15.929Z,2.40
2022-12-08T21:49:03.241Z,2.10
2022-12-08T21:51:50.098Z,2.00
2022-12-08T21:54:37.318Z,2.00
2022-12-08T21:57:25.432Z,2.10
2022-12-08T22:00:16.650Z,2.10
2022-12-08T22:03:03.980Z,2.30
2022-12-08T22:05:50.676Z,2.20
2022-12-08T22:08:38.296Z,2.20
2022-12-08T22:11:25.158Z,2.00
2022-12-08T22:14:15.195Z,1.80
2022-12-08T22:17:02.456Z,1.80
2022-12-08T22:19:49.396Z,1.50
2022-12-08T22:22:36.168Z,1.30
2022-12-08T22:25:22.970Z,1.20
2022-12-08T22:28:10.011Z,1.30
2022-12-08T22:30:57.829Z,1.40
2022-12-08T22:33:45.322Z,1.60
2022-12-08T22:36:32.385Z,1.70
2022-12-08T22:39:18.947Z,1.80
2022-12-08T22:42:05.608Z,1.80
2022-12-08T22:44:52.317Z,1.90
2022-12-08T22:47:40.108Z,2.00
2022-12-08T22:50:26.500Z,1.90
2022-12-08T22:53:13.944Z,1.80
2022-12-08T22:56:01.032Z,1.70
2022-12-08T22:58:47.904Z,1.70
2022-12-08T23:01:35.572Z,1.70
2022-12-08T23:04:23.890Z,1.40
2022-12-08T23:07:10.639Z,1.30
2022-12-08T23:09:57.482Z,1.30
2022-12-08T23:12:44.390Z,1.30
2022-12-08T23:15:31.227Z,1.30
2022-12-08T23:18:19.614Z,1.40
2022-12-08T23:21:11.581Z,1.50
2022-12-08T23:23:58.412Z,1.20
2022-12-08T23:26:45.445Z,1.10
2022-12-08T23:29:31.802Z,1.00
2022-12-08T23:32:18.558Z,0.80
2022-12-08T23:35:07.168Z,0.90
2022-12-08T23:37:55.193Z,0.80
2022-12-08T23:40:41.754Z,0.70
2022-12-08T23:43:28.269Z,0.70
2022-12-08T23:46:15.255Z,0.90
2022-12-08T23:49:02.010Z,1.10
2022-12-08T23:51:48.653Z,1.20
2022-12-08T23:54:36.935Z,1.20
2022-12-08T23:57:23.878Z,1.30
